Boddam, United Kingdom
Current Conditions -  °F | °C
As of 8:20 PM on Sunday 25 Jan 2015 (Local Time) from EGPD Reporting Station
Scattered Clouds Scattered Clouds  
Wind Chill: 44°   Ceiling: Unl
Heat Index: 46°   Visibility: 6mi
Dew Point: 43°   Wind: 6mph
Humidity: 87%   Direction: 240°WSW
Pressure: 29.88"   Gusts: NA
Location:  57.47°N, 1.78°W
Report Text: EGPD 252020Z 24005KT 9999 SCT011 08/06 Q1012 NOSIG
Loading
Personal Weather Stations






























Interactive Weather Map New forecast layout! Learn more

10-Day Weather Forecast

Advertisements
Track Severe Weather on mobile